sensor_id;sensor_type;location;lat;lon;timestamp;temperature;humidity
21259;DHT22;10787;53.364;-1.480;2023-04-25T00:00:59;3.00;1.00
21259;DHT22;10787;53.364;-1.480;2023-04-25T00:03:43;3.00;1.00
21259;DHT22;10787;53.364;-1.480;2023-04-25T00:06:28;3.00;1.00
21259;DHT22;10787;53.364;-1.480;2023-04-25T00:09:13;2.90;1.00
21259;DHT22;10787;53.364;-1.480;2023-04-25T00:11:59;2.90;1.00
21259;DHT22;10787;53.364;-1.480;2023-04-25T00:14:43;2.90;1.00
21259;DHT22;10787;53.364;-1.480;2023-04-25T00:17:28;2.90;1.00
21259;DHT22;10787;53.364;-1.480;2023-04-25T00:20:12;2.90;1.00
21259;DHT22;10787;53.364;-1.480;2023-04-25T00:22:57;2.80;1.00
21259;DHT22;10787;53.364;-1.480;2023-04-25T00:25:41;2.80;1.00
21259;DHT22;10787;53.364;-1.480;2023-04-25T00:28:25;2.80;1.00
21259;DHT22;10787;53.364;-1.480;2023-04-25T00:31:09;2.80;1.00
21259;DHT22;10787;53.364;-1.480;2023-04-25T00:33:54;2.80;1.00
21259;DHT22;10787;53.364;-1.480;2023-04-25T00:36:38;2.80;1.00
21259;DHT22;10787;53.364;-1.480;2023-04-25T00:39:23;2.80;1.00
21259;DHT22;10787;53.364;-1.480;2023-04-25T00:42:08;2.70;1.00
21259;DHT22;10787;53.364;-1.480;2023-04-25T00:44:53;2.70;1.00
21259;DHT22;10787;53.364;-1.480;2023-04-25T00:47:37;2.70;1.00
21259;DHT22;10787;53.364;-1.480;2023-04-25T00:50:22;2.70;1.00
21259;DHT22;10787;53.364;-1.480;2023-04-25T00:53:07;2.70;1.00
21259;DHT22;10787;53.364;-1.480;2023-04-25T00:55:54;2.70;1.00
21259;DHT22;10787;53.364;-1.480;2023-04-25T00:58:38;2.60;1.00
21259;DHT22;10787;53.364;-1.480;2023-04-25T01:01:24;2.70;1.00
21259;DHT22;10787;53.364;-1.480;2023-04-25T01:04:09;2.60;1.00
21259;DHT22;10787;53.364;-1.480;2023-04-25T01:06:53;2.60;1.00
21259;DHT22;10787;53.364;-1.480;2023-04-25T01:09:38;2.60;1.00
21259;DHT22;10787;53.364;-1.480;2023-04-25T01:12:23;2.70;1.00
21259;DHT22;10787;53.364;-1.480;2023-04-25T01:15:07;2.70;1.00
21259;DHT22;10787;53.364;-1.480;2023-04-25T01:17:52;2.70;1.00
21259;DHT22;10787;53.364;-1.480;2023-04-25T01:20:37;2.70;1.00
21259;DHT22;10787;53.364;-1.480;2023-04-25T01:23:22;2.70;1.00
21259;DHT22;10787;53.364;-1.480;2023-04-25T01:26:09;2.60;1.00
21259;DHT22;10787;53.364;-1.480;2023-04-25T01:28:54;2.60;1.00
21259;DHT22;10787;53.364;-1.480;2023-04-25T01:31:38;2.60;1.00
21259;DHT22;10787;53.364;-1.480;2023-04-25T01:34:23;2.50;1.00
21259;DHT22;10787;53.364;-1.480;2023-04-25T01:37:07;2.60;1.00
21259;DHT22;10787;53.364;-1.480;2023-04-25T01:39:52;2.50;1.00
21259;DHT22;10787;53.364;-1.480;2023-04-25T01:42:38;2.50;1.00
21259;DHT22;10787;53.364;-1.480;2023-04-25T01:45:23;2.50;1.00
21259;DHT22;10787;53.364;-1.480;2023-04-25T01:48:08;2.50;1.00
21259;DHT22;10787;53.364;-1.480;2023-04-25T01:50:52;2.50;1.00
21259;DHT22;10787;53.364;-1.480;2023-04-25T01:53:36;2.50;1.00
21259;DHT22;10787;53.364;-1.480;2023-04-25T01:56:21;2.50;1.00
21259;DHT22;10787;53.364;-1.480;2023-04-25T01:59:05;2.50;1.00
21259;DHT22;10787;53.364;-1.480;2023-04-25T02:01:50;2.50;1.00
21259;DHT22;10787;53.364;-1.480;2023-04-25T02:04:34;2.40;1.00
21259;DHT22;10787;53.364;-1.480;2023-04-25T02:07:18;2.40;1.00
21259;DHT22;10787;53.364;-1.480;2023-04-25T02:10:04;2.40;1.00
21259;DHT22;10787;53.364;-1.480;2023-04-25T02:12:49;2.30;1.00
21259;DHT22;10787;53.364;-1.480;2023-04-25T02:15:33;2.30;1.00
21259;DHT22;10787;53.364;-1.480;2023-04-25T02:18:18;2.30;1.00
21259;DHT22;10787;53.364;-1.480;2023-04-25T02:21:03;2.20;1.00
21259;DHT22;10787;53.364;-1.480;2023-04-25T02:23:47;2.30;1.00
21259;DHT22;10787;53.364;-1.480;2023-04-25T02:26:33;2.30;1.00
21259;DHT22;10787;53.364;-1.480;2023-04-25T02:29:17;2.30;1.00
21259;DHT22;10787;53.364;-1.480;2023-04-25T02:32:01;2.30;1.00
21259;DHT22;10787;53.364;-1.480;2023-04-25T02:34:45;2.40;1.00
21259;DHT22;10787;53.364;-1.480;2023-04-25T02:37:31;2.40;1.00
21259;DHT22;10787;53.364;-1.480;2023-04-25T02:40:16;2.40;1.00
21259;DHT22;10787;53.364;-1.480;2023-04-25T02:43:00;2.40;1.00
21259;DHT22;10787;53.364;-1.480;2023-04-25T02:45:44;2.40;1.00
21259;DHT22;10787;53.364;-1.480;2023-04-25T02:48:29;2.40;1.00
21259;DHT22;10787;53.364;-1.480;2023-04-25T02:51:13;2.30;1.00
21259;DHT22;10787;53.364;-1.480;2023-04-25T02:54:00;2.30;1.00
21259;DHT22;10787;53.364;-1.480;2023-04-25T02:56:44;2.30;1.00
21259;DHT22;10787;53.364;-1.480;2023-04-25T02:59:29;2.30;1.00
21259;DHT22;10787;53.364;-1.480;2023-04-25T03:02:13;2.20;1.00
21259;DHT22;10787;53.364;-1.480;2023-04-25T03:04:57;2.20;1.00
21259;DHT22;10787;53.364;-1.480;2023-04-25T03:07:41;2.10;1.00
21259;DHT22;10787;53.364;-1.480;2023-04-25T03:10:27;2.10;1.00
21259;DHT22;10787;53.364;-1.480;2023-04-25T03:13:12;2.10;1.00
21259;DHT22;10787;53.364;-1.480;2023-04-25T03:15:56;2.10;1.00
21259;DHT22;10787;53.364;-1.480;2023-04-25T03:18:41;2.00;1.00
21259;DHT22;10787;53.364;-1.480;2023-04-25T03:21:25;2.00;1.00
21259;DHT22;10787;53.364;-1.480;2023-04-25T03:24:10;1.90;1.00
21259;DHT22;10787;53.364;-1.480;2023-04-25T03:26:57;1.90;1.00
21259;DHT22;10787;53.364;-1.480;2023-04-25T03:29:42;1.90;1.00
21259;DHT22;10787;53.364;-1.480;2023-04-25T03:32:27;1.80;1.00
21259;DHT22;10787;53.364;-1.480;2023-04-25T03:35:11;1.90;1.00
21259;DHT22;10787;53.364;-1.480;2023-04-25T03:37:55;1.80;1.00
21259;DHT22;10787;53.364;-1.480;2023-04-25T03:40:40;1.80;1.00
21259;DHT22;10787;53.364;-1.480;2023-04-25T03:43:24;1.80;1.00
21259;DHT22;10787;53.364;-1.480;2023-04-25T03:46:09;1.80;1.00
21259;DHT22;10787;53.364;-1.480;2023-04-25T03:48:53;1.70;1.00
21259;DHT22;10787;53.364;-1.480;2023-04-25T03:51:37;1.70;1.00
21259;DHT22;10787;53.364;-1.480;2023-04-25T03:54:22;1.80;1.00
21259;DHT22;10787;53.364;-1.480;2023-04-25T03:57:06;1.70;1.00
21259;DHT22;10787;53.364;-1.480;2023-04-25T03:59:50;1.70;1.00
21259;DHT22;10787;53.364;-1.480;2023-04-25T04:02:34;1.70;1.00
21259;DHT22;10787;53.364;-1.480;2023-04-25T04:05:20;1.70;1.00
21259;DHT22;10787;53.364;-1.480;2023-04-25T04:08:05;1.60;1.00
21259;DHT22;10787;53.364;-1.480;2023-04-25T04:10:49;1.60;1.00
21259;DHT22;10787;53.364;-1.480;2023-04-25T04:13:33;1.60;1.00
21259;DHT22;10787;53.364;-1.480;2023-04-25T04:16:17;1.60;1.00
21259;DHT22;10787;53.364;-1.480;2023-04-25T04:19:03;1.60;1.00
21259;DHT22;10787;53.364;-1.480;2023-04-25T04:21:47;1.60;1.00
21259;DHT22;10787;53.364;-1.480;2023-04-25T04:24:32;1.50;1.00
21259;DHT22;10787;53.364;-1.480;2023-04-25T04:27:21;1.60;1.00
21259;DHT22;10787;53.364;-1.480;2023-04-25T04:30:07;1.60;1.00
21259;DHT22;10787;53.364;-1.480;2023-04-25T04:32:51;1.50;1.00
21259;DHT22;10787;53.364;-1.480;2023-04-25T04:35:36;1.50;1.00
21259;DHT22;10787;53.364;-1.480;2023-04-25T04:38:20;1.50;1.00
21259;DHT22;10787;53.364;-1.480;2023-04-25T04:41:06;1.50;1.00
21259;DHT22;10787;53.364;-1.480;2023-04-25T04:43:50;1.50;1.00
21259;DHT22;10787;53.364;-1.480;2023-04-25T04:46:37;1.50;1.00
21259;DHT22;10787;53.364;-1.480;2023-04-25T04:49:25;1.50;1.00
21259;DHT22;10787;53.364;-1.480;2023-04-25T04:52:10;1.50;1.00
21259;DHT22;10787;53.364;-1.480;2023-04-25T04:54:54;1.50;1.00
21259;DHT22;10787;53.364;-1.480;2023-04-25T04:57:39;1.50;1.00
21259;DHT22;10787;53.364;-1.480;2023-04-25T05:00:23;1.50;1.00
21259;DHT22;10787;53.364;-1.480;2023-04-25T05:03:08;1.60;1.00
21259;DHT22;10787;53.364;-1.480;2023-04-25T05:05:52;1.60;1.00
21259;DHT22;10787;53.364;-1.480;2023-04-25T05:08:36;1.60;1.00
21259;DHT22;10787;53.364;-1.480;2023-04-25T05:11:21;1.70;1.00
21259;DHT22;10787;53.364;-1.480;2023-04-25T05:14:05;1.70;1.00
21259;DHT22;10787;53.364;-1.480;2023-04-25T05:16:50;1.70;1.00
21259;DHT22;10787;53.364;-1.480;2023-04-25T05:19:34;1.80;1.00
21259;DHT22;10787;53.364;-1.480;2023-04-25T05:22:19;1.90;1.00
21259;DHT22;10787;53.364;-1.480;2023-04-25T05:25:04;1.90;1.00
21259;DHT22;10787;53.364;-1.480;2023-04-25T05:27:48;2.00;1.00
21259;DHT22;10787;53.364;-1.480;2023-04-25T05:30:34;2.10;1.00
21259;DHT22;10787;53.364;-1.480;2023-04-25T05:33:18;2.10;1.00
21259;DHT22;10787;53.364;-1.480;2023-04-25T05:36:03;2.20;1.00
21259;DHT22;10787;53.364;-1.480;2023-04-25T05:38:48;2.30;1.00
21259;DHT22;10787;53.364;-1.480;2023-04-25T05:41:32;2.70;1.00
21259;DHT22;10787;53.364;-1.480;2023-04-25T05:44:16;3.10;1.00
21259;DHT22;10787;53.364;-1.480;2023-04-25T05:47:00;3.60;1.00
21259;DHT22;10787;53.364;-1.480;2023-04-25T05:49:44;3.90;1.00
21259;DHT22;10787;53.364;-1.480;2023-04-25T05:52:28;3.90;1.00
21259;DHT22;10787;53.364;-1.480;2023-04-25T05:55:13;3.90;1.00
21259;DHT22;10787;53.364;-1.480;2023-04-25T05:57:58;3.80;1.00
21259;DHT22;10787;53.364;-1.480;2023-04-25T06:00:42;3.70;1.00
21259;DHT22;10787;53.364;-1.480;2023-04-25T06:03:26;3.70;1.00
21259;DHT22;10787;53.364;-1.480;2023-04-25T06:06:11;3.60;1.00
21259;DHT22;10787;53.364;-1.480;2023-04-25T06:08:56;3.60;1.00
21259;DHT22;10787;53.364;-1.480;2023-04-25T06:11:40;3.60;1.00
21259;DHT22;10787;53.364;-1.480;2023-04-25T06:14:24;3.50;1.00
21259;DHT22;10787;53.364;-1.480;2023-04-25T06:17:08;3.50;1.00
21259;DHT22;10787;53.364;-1.480;2023-04-25T06:19:53;3.60;1.00
21259;DHT22;10787;53.364;-1.480;2023-04-25T06:22:37;3.60;1.00
21259;DHT22;10787;53.364;-1.480;2023-04-25T06:25:21;3.60;1.00
21259;DHT22;10787;53.364;-1.480;2023-04-25T06:28:06;3.70;1.00
21259;DHT22;10787;53.364;-1.480;2023-04-25T06:30:50;3.70;1.00
21259;DHT22;10787;53.364;-1.480;2023-04-25T06:33:35;3.80;1.00
21259;DHT22;10787;53.364;-1.480;2023-04-25T06:36:19;3.80;1.00
21259;DHT22;10787;53.364;-1.480;2023-04-25T06:39:08;3.90;1.00
21259;DHT22;10787;53.364;-1.480;2023-04-25T06:41:53;4.00;1.00
21259;DHT22;10787;53.364;-1.480;2023-04-25T06:44:37;4.00;1.00
21259;DHT22;10787;53.364;-1.480;2023-04-25T06:47:21;4.10;1.00
21259;DHT22;10787;53.364;-1.480;2023-04-25T06:50:06;4.20;1.00
21259;DHT22;10787;53.364;-1.480;2023-04-25T06:52:50;4.50;1.00
21259;DHT22;10787;53.364;-1.480;2023-04-25T06:55:34;4.60;1.00
21259;DHT22;10787;53.364;-1.480;2023-04-25T06:58:19;4.80;1.00
21259;DHT22;10787;53.364;-1.480;2023-04-25T07:01:04;4.80;1.00
21259;DHT22;10787;53.364;-1.480;2023-04-25T07:03:48;4.90;1.00
21259;DHT22;10787;53.364;-1.480;2023-04-25T07:06:32;4.90;1.00
21259;DHT22;10787;53.364;-1.480;2023-04-25T07:09:16;5.00;1.00
21259;DHT22;10787;53.364;-1.480;2023-04-25T07:12:00;5.00;1.00
21259;DHT22;10787;53.364;-1.480;2023-04-25T07:14:45;5.10;1.00
21259;DHT22;10787;53.364;-1.480;2023-04-25T07:17:30;5.10;1.00
21259;DHT22;10787;53.364;-1.480;2023-04-25T07:20:13;5.10;1.00
21259;DHT22;10787;53.364;-1.480;2023-04-25T07:22:58;5.10;1.00
21259;DHT22;10787;53.364;-1.480;2023-04-25T07:25:42;5.20;1.00
21259;DHT22;10787;53.364;-1.480;2023-04-25T07:28:27;5.30;1.00
21259;DHT22;10787;53.364;-1.480;2023-04-25T07:31:11;5.30;1.00
21259;DHT22;10787;53.364;-1.480;2023-04-25T07:33:56;5.40;1.00
21259;DHT22;10787;53.364;-1.480;2023-04-25T07:36:40;5.40;1.00
21259;DHT22;10787;53.364;-1.480;2023-04-25T07:39:25;5.50;1.00
21259;DHT22;10787;53.364;-1.480;2023-04-25T07:42:09;5.50;1.00
21259;DHT22;10787;53.364;-1.480;2023-04-25T07:44:54;5.50;1.00
21259;DHT22;10787;53.364;-1.480;2023-04-25T07:47:39;5.70;1.00
21259;DHT22;10787;53.364;-1.480;2023-04-25T07:50:23;5.80;1.00
21259;DHT22;10787;53.364;-1.480;2023-04-25T07:53:08;5.80;1.00
21259;DHT22;10787;53.364;-1.480;2023-04-25T07:55:52;5.90;1.00
21259;DHT22;10787;53.364;-1.480;2023-04-25T07:58:37;5.90;1.00
21259;DHT22;10787;53.364;-1.480;2023-04-25T08:01:21;5.90;1.00
21259;DHT22;10787;53.364;-1.480;2023-04-25T08:04:06;6.00;1.00
21259;DHT22;10787;53.364;-1.480;2023-04-25T08:06:50;6.00;1.00
21259;DHT22;10787;53.364;-1.480;2023-04-25T08:09:34;6.10;1.00
21259;DHT22;10787;53.364;-1.480;2023-04-25T08:12:20;6.20;1.00
21259;DHT22;10787;53.364;-1.480;2023-04-25T08:15:05;6.30;1.00
21259;DHT22;10787;53.364;-1.480;2023-04-25T08:17:49;6.30;1.00
21259;DHT22;10787;53.364;-1.480;2023-04-25T08:20:34;6.30;1.00
21259;DHT22;10787;53.364;-1.480;2023-04-25T08:23:18;6.40;1.00
21259;DHT22;10787;53.364;-1.480;2023-04-25T08:26:03;6.50;1.00
21259;DHT22;10787;53.364;-1.480;2023-04-25T08:28:48;6.60;1.00
21259;DHT22;10787;53.364;-1.480;2023-04-25T08:31:33;6.60;1.00
21259;DHT22;10787;53.364;-1.480;2023-04-25T08:34:17;6.70;1.00
21259;DHT22;10787;53.364;-1.480;2023-04-25T08:37:01;6.70;1.00
21259;DHT22;10787;53.364;-1.480;2023-04-25T08:39:48;6.80;1.00
21259;DHT22;10787;53.364;-1.480;2023-04-25T08:42:33;6.90;1.00
21259;DHT22;10787;53.364;-1.480;2023-04-25T08:45:19;7.00;1.00
21259;DHT22;10787;53.364;-1.480;2023-04-25T08:48:04;7.20;1.00
21259;DHT22;10787;53.364;-1.480;2023-04-25T08:50:51;7.30;1.00
21259;DHT22;10787;53.364;-1.480;2023-04-25T08:53:35;7.40;1.00
21259;DHT22;10787;53.364;-1.480;2023-04-25T08:56:20;7.40;1.00
21259;DHT22;10787;53.364;-1.480;2023-04-25T08:59:07;7.50;1.00
21259;DHT22;10787;53.364;-1.480;2023-04-25T09:01:52;7.60;1.00
21259;DHT22;10787;53.364;-1.480;2023-04-25T09:04:36;7.60;1.00
21259;DHT22;10787;53.364;-1.480;2023-04-25T09:07:21;7.70;1.00
21259;DHT22;10787;53.364;-1.480;2023-04-25T09:10:06;7.80;1.00
21259;DHT22;10787;53.364;-1.480;2023-04-25T09:15:56;7.90;1.00
21259;DHT22;10787;53.364;-1.480;2023-04-25T09:18:40;7.90;1.00
21259;DHT22;10787;53.364;-1.480;2023-04-25T09:21:25;7.90;1.00
21259;DHT22;10787;53.364;-1.480;2023-04-25T09:24:09;8.00;1.00
21259;DHT22;10787;53.364;-1.480;2023-04-25T09:26:54;8.10;1.00
21259;DHT22;10787;53.364;-1.480;2023-04-25T09:29:40;8.20;1.00
21259;DHT22;10787;53.364;-1.480;2023-04-25T09:32:25;8.30;1.00
21259;DHT22;10787;53.364;-1.480;2023-04-25T09:35:09;8.30;1.00
21259;DHT22;10787;53.364;-1.480;2023-04-25T09:37:56;8.40;1.00
21259;DHT22;10787;53.364;-1.480;2023-04-25T09:40:44;8.50;1.00
21259;DHT22;10787;53.364;-1.480;2023-04-25T09:43:29;8.70;1.00
21259;DHT22;10787;53.364;-1.480;2023-04-25T09:46:13;8.70;1.00
21259;DHT22;10787;53.364;-1.480;2023-04-25T09:48:57;8.80;1.00
21259;DHT22;10787;53.364;-1.480;2023-04-25T09:51:41;8.80;1.00
21259;DHT22;10787;53.364;-1.480;2023-04-25T09:54:25;8.90;1.00
21259;DHT22;10787;53.364;-1.480;2023-04-25T09:57:14;8.90;1.00
21259;DHT22;10787;53.364;-1.480;2023-04-25T10:00:00;9.00;1.00
21259;DHT22;10787;53.364;-1.480;2023-04-25T10:02:47;9.00;1.00
21259;DHT22;10787;53.364;-1.480;2023-04-25T10:05:32;9.00;1.00
21259;DHT22;10787;53.364;-1.480;2023-04-25T10:08:20;9.00;1.00
21259;DHT22;10787;53.364;-1.480;2023-04-25T10:11:07;8.80;1.00
21259;DHT22;10787;53.364;-1.480;2023-04-25T10:13:52;8.80;1.00
21259;DHT22;10787;53.364;-1.480;2023-04-25T10:16:38;8.90;1.00
21259;DHT22;10787;53.364;-1.480;2023-04-25T10:19:25;8.90;1.00
21259;DHT22;10787;53.364;-1.480;2023-04-25T10:22:39;9.00;1.00
21259;DHT22;10787;53.364;-1.480;2023-04-25T10:25:24;9.10;1.00
21259;DHT22;10787;53.364;-1.480;2023-04-25T10:28:08;9.30;1.00
21259;DHT22;10787;53.364;-1.480;2023-04-25T10:31:03;9.40;1.00
21259;DHT22;10787;53.364;-1.480;2023-04-25T10:33:48;9.50;1.00
21259;DHT22;10787;53.364;-1.480;2023-04-25T10:36:33;9.60;1.00
21259;DHT22;10787;53.364;-1.480;2023-04-25T10:39:23;9.70;1.00
21259;DHT22;10787;53.364;-1.480;2023-04-25T10:42:08;9.80;1.00
21259;DHT22;10787;53.364;-1.480;2023-04-25T10:45:04;9.80;1.00
21259;DHT22;10787;53.364;-1.480;2023-04-25T10:47:49;9.80;1.00
21259;DHT22;10787;53.364;-1.480;2023-04-25T10:50:40;9.90;1.00
21259;DHT22;10787;53.364;-1.480;2023-04-25T10:53:24;10.10;1.00
21259;DHT22;10787;53.364;-1.480;2023-04-25T10:56:29;10.30;1.00
21259;DHT22;10787;53.364;-1.480;2023-04-25T10:59:18;10.50;1.00
21259;DHT22;10787;53.364;-1.480;2023-04-25T11:02:26;10.80;1.00
21259;DHT22;10787;53.364;-1.480;2023-04-25T11:05:19;10.90;1.00
21259;DHT22;10787;53.364;-1.480;2023-04-25T11:08:11;11.00;1.00
21259;DHT22;10787;53.364;-1.480;2023-04-25T11:10:55;11.00;1.00
21259;DHT22;10787;53.364;-1.480;2023-04-25T11:13:40;11.10;1.00
21259;DHT22;10787;53.364;-1.480;2023-04-25T11:16:24;11.00;1.00
21259;DHT22;10787;53.364;-1.480;2023-04-25T11:19:09;10.80;1.00
21259;DHT22;10787;53.364;-1.480;2023-04-25T11:21:58;10.90;1.00
21259;DHT22;10787;53.364;-1.480;2023-04-25T11:24:43;11.10;1.00
21259;DHT22;10787;53.364;-1.480;2023-04-25T11:27:27;11.50;1.00
21259;DHT22;10787;53.364;-1.480;2023-04-25T11:30:13;11.80;1.00
21259;DHT22;10787;53.364;-1.480;2023-04-25T11:32:58;12.20;1.00
21259;DHT22;10787;53.364;-1.480;2023-04-25T11:35:43;12.60;1.00
21259;DHT22;10787;53.364;-1.480;2023-04-25T11:38:28;12.90;1.00
21259;DHT22;10787;53.364;-1.480;2023-04-25T11:41:12;12.60;1.00
21259;DHT22;10787;53.364;-1.480;2023-04-25T11:43:56;12.60;1.00
21259;DHT22;10787;53.364;-1.480;2023-04-25T11:46:41;12.60;1.00
21259;DHT22;10787;53.364;-1.480;2023-04-25T11:49:30;12.80;1.00
21259;DHT22;10787;53.364;-1.480;2023-04-25T11:52:15;13.50;1.00
21259;DHT22;10787;53.364;-1.480;2023-04-25T11:54:59;14.60;1.00
21259;DHT22;10787;53.364;-1.480;2023-04-25T11:57:46;15.40;1.00
21259;DHT22;10787;53.364;-1.480;2023-04-25T12:00:31;15.70;1.00
21259;DHT22;10787;53.364;-1.480;2023-04-25T12:03:17;15.60;1.00
21259;DHT22;10787;53.364;-1.480;2023-04-25T12:06:05;15.60;1.00
21259;DHT22;10787;53.364;-1.480;2023-04-25T12:09:06;16.40;1.00
21259;DHT22;10787;53.364;-1.480;2023-04-25T12:11:55;17.90;1.00
21259;DHT22;10787;53.364;-1.480;2023-04-25T12:14:40;19.10;1.00
21259;DHT22;10787;53.364;-1.480;2023-04-25T12:17:31;20.30;1.00
21259;DHT22;10787;53.364;-1.480;2023-04-25T12:20:23;20.90;1.00
21259;DHT22;10787;53.364;-1.480;2023-04-25T12:23:07;20.60;1.00
21259;DHT22;10787;53.364;-1.480;2023-04-25T12:25:52;20.80;1.00
21259;DHT22;10787;53.364;-1.480;2023-04-25T12:28:36;20.50;1.00
21259;DHT22;10787;53.364;-1.480;2023-04-25T12:31:20;19.90;1.00
21259;DHT22;10787;53.364;-1.480;2023-04-25T12:34:06;19.90;1.00
21259;DHT22;10787;53.364;-1.480;2023-04-25T12:36:51;20.30;1.00
21259;DHT22;10787;53.364;-1.480;2023-04-25T12:39:36;21.00;1.00
21259;DHT22;10787;53.364;-1.480;2023-04-25T12:42:20;21.00;1.00
21259;DHT22;10787;53.364;-1.480;2023-04-25T12:45:04;21.80;1.00
21259;DHT22;10787;53.364;-1.480;2023-04-25T12:47:49;22.50;46.00
21259;DHT22;10787;53.364;-1.480;2023-04-25T12:50:33;23.10;44.20
21259;DHT22;10787;53.364;-1.480;2023-04-25T12:53:22;23.30;1.00
21259;DHT22;10787;53.364;-1.480;2023-04-25T12:56:08;22.80;1.00
21259;DHT22;10787;53.364;-1.480;2023-04-25T12:58:53;22.70;28.80
21259;DHT22;10787;53.364;-1.480;2023-04-25T13:01:37;21.90;1.00
21259;DHT22;10787;53.364;-1.480;2023-04-25T13:04:22;21.70;29.90
21259;DHT22;10787;53.364;-1.480;2023-04-25T13:07:06;22.30;34.20
21259;DHT22;10787;53.364;-1.480;2023-04-25T13:09:51;22.30;32.50
21259;DHT22;10787;53.364;-1.480;2023-04-25T13:12:35;23.30;59.60
21259;DHT22;10787;53.364;-1.480;2023-04-25T13:15:19;23.50;99.90
21259;DHT22;10787;53.364;-1.480;2023-04-25T13:18:04;23.00;41.00
21259;DHT22;10787;53.364;-1.480;2023-04-25T13:20:49;22.30;21.40
21259;DHT22;10787;53.364;-1.480;2023-04-25T13:23:34;20.90;2.60
21259;DHT22;10787;53.364;-1.480;2023-04-25T13:26:18;20.00;1.00
21259;DHT22;10787;53.364;-1.480;2023-04-25T13:29:02;19.00;1.00
21259;DHT22;10787;53.364;-1.480;2023-04-25T13:31:47;19.40;1.00
21259;DHT22;10787;53.364;-1.480;2023-04-25T13:34:32;20.90;1.00
21259;DHT22;10787;53.364;-1.480;2023-04-25T13:37:16;21.90;99.00
21259;DHT22;10787;53.364;-1.480;2023-04-25T13:40:03;23.20;99.90
21259;DHT22;10787;53.364;-1.480;2023-04-25T13:42:48;23.30;99.90
21259;DHT22;10787;53.364;-1.480;2023-04-25T13:45:32;23.50;59.90
21259;DHT22;10787;53.364;-1.480;2023-04-25T13:48:17;24.30;85.30
21259;DHT22;10787;53.364;-1.480;2023-04-25T13:51:02;23.90;99.40
21259;DHT22;10787;53.364;-1.480;2023-04-25T13:53:46;22.40;99.90
21259;DHT22;10787;53.364;-1.480;2023-04-25T13:56:31;21.60;99.90
21259;DHT22;10787;53.364;-1.480;2023-04-25T13:59:16;20.60;92.60
21259;DHT22;10787;53.364;-1.480;2023-04-25T14:02:01;19.50;7.40
21259;DHT22;10787;53.364;-1.480;2023-04-25T14:04:45;18.30;83.40
21259;DHT22;10787;53.364;-1.480;2023-04-25T14:07:30;17.80;1.00
21259;DHT22;10787;53.364;-1.480;2023-04-25T14:10:14;19.10;1.00
21259;DHT22;10787;53.364;-1.480;2023-04-25T14:12:59;21.10;1.40
21259;DHT22;10787;53.364;-1.480;2023-04-25T14:15:44;21.90;39.50
21259;DHT22;10787;53.364;-1.480;2023-04-25T14:18:29;23.30;70.30
21259;DHT22;10787;53.364;-1.480;2023-04-25T14:21:13;24.30;99.90
21259;DHT22;10787;53.364;-1.480;2023-04-25T14:23:57;24.90;99.90
21259;DHT22;10787;53.364;-1.480;2023-04-25T14:26:42;25.40;99.90
21259;DHT22;10787;53.364;-1.480;2023-04-25T14:29:29;25.70;45.30
21259;DHT22;10787;53.364;-1.480;2023-04-25T14:32:14;26.70;99.90
21259;DHT22;10787;53.364;-1.480;2023-04-25T14:34:58;26.50;99.90
21259;DHT22;10787;53.364;-1.480;2023-04-25T14:37:42;26.50;99.90
21259;DHT22;10787;53.364;-1.480;2023-04-25T14:40:27;26.60;99.90
21259;DHT22;10787;53.364;-1.480;2023-04-25T14:43:11;25.80;99.90
21259;DHT22;10787;53.364;-1.480;2023-04-25T14:45:55;24.90;99.90
21259;DHT22;10787;53.364;-1.480;2023-04-25T14:48:49;23.60;99.90
21259;DHT22;10787;53.364;-1.480;2023-04-25T14:51:33;23.60;49.80
21259;DHT22;10787;53.364;-1.480;2023-04-25T14:54:17;23.10;45.20
21259;DHT22;10787;53.364;-1.480;2023-04-25T14:57:01;21.80;40.70
21259;DHT22;10787;53.364;-1.480;2023-04-25T14:59:46;21.20;15.00
21259;DHT22;10787;53.364;-1.480;2023-04-25T15:02:30;21.30;55.60
21259;DHT22;10787;53.364;-1.480;2023-04-25T15:05:15;20.70;57.10
21259;DHT22;10787;53.364;-1.480;2023-04-25T15:08:01;20.00;12.90
21259;DHT22;10787;53.364;-1.480;2023-04-25T15:10:46;20.60;35.70
21259;DHT22;10787;53.364;-1.480;2023-04-25T15:13:31;21.20;48.40
21259;DHT22;10787;53.364;-1.480;2023-04-25T15:16:15;21.10;35.50
21259;DHT22;10787;53.364;-1.480;2023-04-25T15:18:59;20.10;49.00
21259;DHT22;10787;53.364;-1.480;2023-04-25T15:21:47;19.40;13.10
21259;DHT22;10787;53.364;-1.480;2023-04-25T15:24:32;18.40;41.90
21259;DHT22;10787;53.364;-1.480;2023-04-25T15:27:17;17.40;91.70
21259;DHT22;10787;53.364;-1.480;2023-04-25T15:30:01;16.60;99.90
21259;DHT22;10787;53.364;-1.480;2023-04-25T15:32:46;15.70;17.60
21259;DHT22;10787;53.364;-1.480;2023-04-25T15:35:30;15.70;60.80
21259;DHT22;10787;53.364;-1.480;2023-04-25T15:38:14;15.70;28.40
21259;DHT22;10787;53.364;-1.480;2023-04-25T15:40:59;15.70;12.20
21259;DHT22;10787;53.364;-1.480;2023-04-25T15:43:43;15.60;6.50
21259;DHT22;10787;53.364;-1.480;2023-04-25T15:46:27;15.80;35.10
21259;DHT22;10787;53.364;-1.480;2023-04-25T15:49:14;15.80;5.10
21259;DHT22;10787;53.364;-1.480;2023-04-25T15:51:58;15.60;1.00
21259;DHT22;10787;53.364;-1.480;2023-04-25T15:54:43;15.50;1.00
21259;DHT22;10787;53.364;-1.480;2023-04-25T15:57:28;15.50;27.90
21259;DHT22;10787;53.364;-1.480;2023-04-25T16:00:13;15.50;1.00
21259;DHT22;10787;53.364;-1.480;2023-04-25T16:02:58;15.50;1.00
21259;DHT22;10787;53.364;-1.480;2023-04-25T16:05:42;15.70;1.00
21259;DHT22;10787;53.364;-1.480;2023-04-25T16:08:27;15.80;67.40
21259;DHT22;10787;53.364;-1.480;2023-04-25T16:11:12;15.80;1.00
21259;DHT22;10787;53.364;-1.480;2023-04-25T16:13:57;15.70;1.00
21259;DHT22;10787;53.364;-1.480;2023-04-25T16:16:42;15.80;1.00
21259;DHT22;10787;53.364;-1.480;2023-04-25T16:19:27;15.80;1.00
21259;DHT22;10787;53.364;-1.480;2023-04-25T16:22:12;16.00;1.00
21259;DHT22;10787;53.364;-1.480;2023-04-25T16:24:59;16.10;1.00
21259;DHT22;10787;53.364;-1.480;2023-04-25T16:27:43;16.00;1.00
21259;DHT22;10787;53.364;-1.480;2023-04-25T16:30:28;16.30;52.90
21259;DHT22;10787;53.364;-1.480;2023-04-25T16:33:12;16.80;9.00
21259;DHT22;10787;53.364;-1.480;2023-04-25T16:35:56;18.00;3.30
21259;DHT22;10787;53.364;-1.480;2023-04-25T16:38:41;19.20;51.90
21259;DHT22;10787;53.364;-1.480;2023-04-25T16:41:25;19.90;6.40
21259;DHT22;10787;53.364;-1.480;2023-04-25T16:44:10;21.10;40.30
21259;DHT22;10787;53.364;-1.480;2023-04-25T16:46:55;21.70;99.90
21259;DHT22;10787;53.364;-1.480;2023-04-25T16:49:39;21.20;23.30
21259;DHT22;10787;53.364;-1.480;2023-04-25T16:52:24;20.20;1.00
21259;DHT22;10787;53.364;-1.480;2023-04-25T16:55:08;19.20;41.50
21259;DHT22;10787;53.364;-1.480;2023-04-25T16:57:53;18.40;1.00
21259;DHT22;10787;53.364;-1.480;2023-04-25T17:00:38;17.60;1.00
21259;DHT22;10787;53.364;-1.480;2023-04-25T17:03:23;16.90;1.00
21259;DHT22;10787;53.364;-1.480;2023-04-25T17:06:09;16.20;1.00
21259;DHT22;10787;53.364;-1.480;2023-04-25T17:08:53;15.80;1.00
21259;DHT22;10787;53.364;-1.480;2023-04-25T17:11:38;15.50;1.00
21259;DHT22;10787;53.364;-1.480;2023-04-25T17:14:22;15.20;1.00
21259;DHT22;10787;53.364;-1.480;2023-04-25T17:17:07;15.10;1.00
21259;DHT22;10787;53.364;-1.480;2023-04-25T17:19:51;14.90;1.00
21259;DHT22;10787;53.364;-1.480;2023-04-25T17:22:36;14.80;1.00
21259;DHT22;10787;53.364;-1.480;2023-04-25T17:25:21;14.60;1.00
21259;DHT22;10787;53.364;-1.480;2023-04-25T17:28:05;14.50;1.00
21259;DHT22;10787;53.364;-1.480;2023-04-25T17:30:50;14.40;1.00
21259;DHT22;10787;53.364;-1.480;2023-04-25T17:33:34;14.30;1.00